Time;durP1;ratioP1;P1;durP2;ratioP2;P2;SDS_P1;SDS_P2;PMS_P1;PMS_P2;Temp;Humidity;BMP_temperature;BMP_pressure;BME280_temperature;BME280_humidity;BME280_pressure;Samples;Min_cycle;Max_cycle;Signal;HPM_P1;HPM_P2
2023/08/12 00:00:17;;;;;;;111.47;80.70;;;22.80;99.90;;;;;;4935902;29;20433;-78
2023/08/12 00:02:43;;;;;;;100.50;69.53;;;22.90;99.90;;;;;;4935804;29;20235;-78
2023/08/12 00:05:13;;;;;;;114.63;83.97;;;22.70;99.90;;;;;;4935990;29;20491;-78
2023/08/12 00:07:43;;;;;;;113.70;78.23;;;22.80;99.90;;;;;;4935659;29;20440;-78
2023/08/12 00:10:10;;;;;;;121.40;87.97;;;22.70;99.90;;;;;;4918596;29;20439;-79
2023/08/12 00:12:37;;;;;;;113.80;89.53;;;22.70;99.90;;;;;;4935939;29;20908;-79
2023/08/12 00:15:06;;;;;;;108.93;80.47;;;22.70;99.90;;;;;;4935569;29;20931;-79
2023/08/12 00:17:32;;;;;;;111.60;89.10;;;22.60;99.90;;;;;;4935821;29;20440;-78
2023/08/12 00:20:00;;;;;;;113.53;84.80;;;22.60;99.90;;;;;;4918548;29;20856;-79
2023/08/12 00:22:26;;;;;;;108.67;84.17;;;22.60;99.90;;;;;;4935592;29;20440;-79
2023/08/12 00:24:52;;;;;;;107.57;83.90;;;22.70;99.90;;;;;;4935837;29;20816;-79
2023/08/12 00:27:18;;;;;;;111.97;89.50;;;22.60;99.90;;;;;;4936904;29;20165;-79
2023/08/12 00:29:44;;;;;;;110.63;86.53;;;22.70;99.90;;;;;;4921683;29;20444;-79
2023/08/12 00:32:10;;;;;;;109.23;75.77;;;22.60;99.90;;;;;;4938859;29;20750;-79
2023/08/12 00:34:36;;;;;;;116.10;89.10;;;22.60;99.90;;;;;;4939008;29;20169;-78
2023/08/12 00:37:01;;;;;;;113.03;85.43;;;22.60;99.90;;;;;;4939108;29;20169;-79
2023/08/12 00:39:27;;;;;;;117.33;98.90;;;22.70;99.90;;;;;;4938654;29;20430;-78
2023/08/12 00:41:53;;;;;;;108.53;87.90;;;22.60;99.90;;;;;;4938737;29;20220;-78
2023/08/12 00:44:18;;;;;;;111.90;88.87;;;22.60;99.90;;;;;;4938941;29;20173;-78
2023/08/12 00:46:44;;;;;;;107.60;85.23;;;22.60;99.90;;;;;;4938514;29;20172;-78
2023/08/12 00:49:12;;;;;;;109.40;93.47;;;22.50;99.90;;;;;;4938444;29;20184;-78
2023/08/12 00:51:41;;;;;;;110.10;89.87;;;22.40;99.90;;;;;;4938572;29;20166;-78
2023/08/12 00:54:12;;;;;;;123.50;102.73;;;22.40;99.90;;;;;;4938487;29;20917;-79
2023/08/12 00:59:29;;;;;;;105.97;82.23;;;22.60;99.90;;;;;;4919192;29;20545;-81
2023/08/12 01:02:00;;;;;;;108.93;89.53;;;22.60;99.90;;;;;;4921312;29;20461;-81
2023/08/12 01:04:51;;;;;;;111.07;92.67;;;22.40;99.90;;;;;;4904207;29;20469;-81
2023/08/12 01:07:25;;;;;;;105.70;84.97;;;22.40;99.90;;;;;;4921356;29;20408;-81
2023/08/12 01:10:04;;;;;;;112.47;91.90;;;22.30;99.90;;;;;;4903797;29;20442;-81
2023/08/12 01:12:39;;;;;;;109.70;97.43;;;22.20;99.90;;;;;;4920732;29;20389;-82
2023/08/12 01:15:25;;;;;;;118.10;105.57;;;22.20;99.90;;;;;;4920923;29;20757;-82
2023/08/12 01:18:22;;;;;;;116.10;103.60;;;22.20;99.90;;;;;;4920969;29;20413;-83
2023/08/12 01:21:49;;;;;;;116.00;103.43;;;22.20;99.90;;;;;;4920666;29;20441;-82
2023/08/12 01:24:31;;;;;;;108.30;94.67;;;22.20;99.90;;;;;;4862610;29;20409;-82
2023/08/12 01:27:08;;;;;;;109.37;95.70;;;22.20;99.90;;;;;;4890161;29;20440;-82
2023/08/12 01:30:23;;;;;;;109.40;93.60;;;22.20;99.90;;;;;;4920808;29;20941;-82
2023/08/12 01:33:16;;;;;;;111.07;96.43;;;22.20;99.90;;;;;;4920877;29;20834;-81
2023/08/12 01:36:15;;;;;;;115.07;102.57;;;22.20;99.90;;;;;;4898156;29;20413;-81
2023/08/12 01:38:57;;;;;;;111.67;99.10;;;22.10;99.90;;;;;;4902829;29;20465;-81
2023/08/12 01:41:54;;;;;;;;;;;;;;;;;;;;;
2023/08/12 01:44:25;;;;;;;113.67;98.57;;;22.20;99.90;;;;;;4920764;29;20879;-82
2023/08/12 01:47:08;;;;;;;120.43;107.77;;;22.10;99.90;;;;;;4903376;29;20448;-82
2023/08/12 01:50:26;;;;;;;112.93;100.63;;;22.10;99.90;;;;;;4920162;29;20430;-82
2023/08/12 01:53:22;;;;;;;;;;;;;;;;;;;;;
2023/08/12 01:56:23;;;;;;;120.77;108.30;;;22.10;99.90;;;;;;4916173;29;20418;-83
2023/08/12 01:59:05;;;;;;;115.90;103.27;;;22.10;99.90;;;;;;4888647;29;20492;-83
2023/08/12 02:01:39;;;;;;;125.37;112.47;;;22.10;99.90;;;;;;4903020;29;20445;-82
2023/08/12 02:04:37;;;;;;;117.67;105.03;;;22.00;99.90;;;;;;4920190;29;20488;-82
2023/08/12 02:07:38;;;;;;;125.43;112.53;;;22.10;99.90;;;;;;4920401;29;20412;-82
2023/08/12 02:10:26;;;;;;;122.23;109.20;;;22.00;99.90;;;;;;4936710;23;20504;-83
2023/08/12 02:13:02;;;;;;;132.40;119.30;;;22.00;99.90;;;;;;4921626;29;20452;-84
2023/08/12 02:16:00;;;;;;;112.43;96.30;;;22.00;99.90;;;;;;4939013;29;20394;-83
2023/08/12 02:18:49;;;;;;;116.30;103.83;;;22.00;99.90;;;;;;4938659;29;20487;-82
2023/08/12 02:21:44;;;;;;;120.43;107.77;;;22.00;99.90;;;;;;4921205;29;20841;-82
2023/08/12 02:25:46;;;;;;;123.80;111.17;;;21.90;99.90;;;;;;4880305;29;20803;-83
2023/08/12 02:28:18;;;;;;;124.40;111.70;;;21.90;99.90;;;;;;4836876;29;20409;-82
2023/08/12 02:31:19;;;;;;;139.40;126.10;;;21.90;99.90;;;;;;4842620;29;21017;-82
2023/08/12 02:34:10;;;;;;;141.80;128.00;;;21.90;99.90;;;;;;4865211;29;20411;-82
2023/08/12 02:37:03;;;;;;;129.13;115.80;;;21.90;99.90;;;;;;4938516;29;20436;-83
2023/08/12 02:40:30;;;;;;;137.17;123.53;;;21.90;99.90;;;;;;4938577;29;20436;-83
2023/08/12 02:43:17;;;;;;;126.07;113.10;;;21.80;99.90;;;;;;4938313;29;20507;-82
2023/08/12 02:46:17;;;;;;;134.17;120.90;;;21.90;99.90;;;;;;4921563;29;20773;-83
2023/08/12 02:48:45;;;;;;;137.00;123.43;;;21.90;99.90;;;;;;4938688;29;20467;-83
2023/08/12 02:51:11;;;;;;;137.10;123.67;;;21.80;99.90;;;;;;4937599;29;20996;-83
2023/08/12 02:56:50;;;;;;;145.77;131.77;;;21.80;99.90;;;;;;4908601;29;20405;-83
2023/08/12 02:59:25;;;;;;;142.33;128.47;;;21.80;99.90;;;;;;4921157;29;20979;-82
2023/08/12 03:02:19;;;;;;;134.17;120.83;;;21.80;99.90;;;;;;4910852;29;20609;-82
2023/08/12 03:05:14;;;;;;;136.87;123.33;;;21.80;99.90;;;;;;4913550;29;20789;-83
2023/08/12 03:07:42;;;;;;;128.27;114.93;;;21.80;99.90;;;;;;4938214;29;20890;-83
2023/08/12 03:10:27;;;;;;;146.13;132.57;;;21.80;99.90;;;;;;4920921;29;20456;-83
2023/08/12 03:13:03;;;;;;;140.43;126.73;;;21.70;99.90;;;;;;4938032;29;20481;-82
2023/08/12 03:15:32;;;;;;;138.77;124.80;;;21.70;99.90;;;;;;4920856;29;20450;-82
2023/08/12 03:18:09;;;;;;;144.00;130.40;;;21.70;99.90;;;;;;4920891;29;20555;-83
2023/08/12 03:21:03;;;;;;;146.23;132.20;;;21.60;99.90;;;;;;4920430;29;20436;-83
2023/08/12 03:24:06;;;;;;;151.80;137.27;;;21.70;99.90;;;;;;4920989;29;20848;-83
2023/08/12 03:26:58;;;;;;;171.87;156.20;;;21.60;99.90;;;;;;4902558;29;20409;-82
2023/08/12 03:29:48;;;;;;;144.93;131.03;;;21.60;99.90;;;;;;4937601;29;20431;-82
2023/08/12 03:32:26;;;;;;;150.47;135.80;;;21.60;99.90;;;;;;4938143;29;20765;-82
2023/08/12 03:35:00;;;;;;;147.93;133.27;;;21.60;99.90;;;;;;4920972;29;20428;-83
2023/08/12 03:38:06;;;;;;;154.20;139.70;;;21.60;99.90;;;;;;4937924;29;20451;-83
2023/08/12 03:40:42;;;;;;;152.70;138.23;;;21.60;99.90;;;;;;4920263;29;20464;-84
2023/08/12 03:43:13;;;;;;;147.87;133.47;;;21.60;99.90;;;;;;4920765;29;20416;-83
2023/08/12 03:49:21;;;;;;;145.13;131.07;;;21.50;99.90;;;;;;4869851;29;20431;-82
2023/08/12 03:51:55;;;;;;;177.73;161.70;;;21.40;99.90;;;;;;4898516;29;20490;-82
2023/08/12 03:54:45;;;;;;;150.50;136.13;;;21.40;99.90;;;;;;4937405;29;20436;-83
2023/08/12 03:57:13;;;;;;;180.53;164.67;;;21.30;99.90;;;;;;4938050;29;20963;-83
2023/08/12 03:59:47;;;;;;;169.33;154.00;;;21.20;99.90;;;;;;4920508;29;20428;-83
2023/08/12 04:02:24;;;;;;;144.83;130.67;;;21.20;99.90;;;;;;4940733;29;20502;-83
2023/08/12 04:05:09;;;;;;;145.10;130.97;;;21.10;99.90;;;;;;4924281;29;20435;-83
2023/08/12 04:08:12;;;;;;;171.33;156.20;;;21.10;99.90;;;;;;4924361;29;20503;-83
2023/08/12 04:10:55;;;;;;;150.73;136.77;;;21.10;99.90;;;;;;4924021;29;20483;-82
2023/08/12 04:13:30;;;;;;;151.23;137.07;;;21.10;99.90;;;;;;4924167;29;20487;-84
2023/08/12 04:16:04;;;;;;;166.83;151.67;;;21.00;99.90;;;;;;4941639;29;20478;-82
2023/08/12 04:18:33;;;;;;;177.27;162.37;;;20.90;99.90;;;;;;4923976;29;20415;-82
2023/08/12 04:21:01;;;;;;;169.70;155.03;;;20.90;99.90;;;;;;4924112;29;20456;-83
2023/08/12 04:23:37;;;;;;;178.67;163.00;;;20.90;99.90;;;;;;4941269;29;20892;-82
2023/08/12 04:26:11;;;;;;;155.83;141.37;;;21.00;99.90;;;;;;4941577;29;20425;-83
2023/08/12 04:28:42;;;;;;;150.90;136.43;;;21.00;99.90;;;;;;4940566;29;20405;-82
2023/08/12 04:31:08;;;;;;;162.93;147.80;;;20.90;99.90;;;;;;4941370;29;20425;-83
2023/08/12 04:33:34;;;;;;;173.33;157.90;;;20.90;99.90;;;;;;4923685;29;20448;-82
2023/08/12 04:36:00;;;;;;;146.33;132.63;;;20.90;99.90;;;;;;4940987;29;20173;-82
2023/08/12 04:38:31;;;;;;;157.20;142.60;;;20.90;99.90;;;;;;4940939;29;20746;-83
2023/08/12 04:40:57;;;;;;;176.83;161.20;;;21.00;99.90;;;;;;4941153;29;20216;-83
2023/08/12 04:43:28;;;;;;;179.67;164.27;;;21.00;99.90;;;;;;4941246;29;20460;-82
2023/08/12 04:45:54;;;;;;;189.27;173.07;;;21.00;99.90;;;;;;4924000;29;20411;-82
2023/08/12 04:48:20;;;;;;;187.83;171.73;;;21.00;99.90;;;;;;4923169;29;20758;-82
2023/08/12 04:50:46;;;;;;;194.70;178.43;;;21.10;99.90;;;;;;4940411;29;20188;-82
2023/08/12 04:53:26;;;;;;;165.80;151.27;;;21.10;99.90;;;;;;4940936;29;20479;-82
2023/08/12 04:55:52;;;;;;;160.50;146.30;;;21.10;99.90;;;;;;4940946;29;20145;-82
2023/08/12 04:58:17;;;;;;;162.03;147.50;;;21.10;99.90;;;;;;4940444;29;20404;-82
2023/08/12 05:00:43;;;;;;;156.23;141.97;;;21.20;99.90;;;;;;4923305;29;20188;-82
2023/08/12 05:03:11;;;;;;;154.37;140.40;;;21.30;99.90;;;;;;4923484;29;20705;-83
2023/08/12 05:05:45;;;;;;;162.53;148.07;;;21.30;99.90;;;;;;4940810;29;20165;-83
2023/08/12 05:08:13;;;;;;;148.60;134.97;;;21.40;99.90;;;;;;4923639;29;20405;-83
2023/08/12 05:10:39;;;;;;;153.37;139.60;;;21.50;99.90;;;;;;4940346;29;20511;-84
2023/08/12 05:13:04;;;;;;;142.40;128.70;;;21.50;99.90;;;;;;4922256;29;20821;-82
2023/08/12 05:15:30;;;;;;;151.43;137.53;;;21.60;99.90;;;;;;4940400;29;20621;-82
2023/08/12 05:17:56;;;;;;;140.70;127.23;;;21.60;99.90;;;;;;4923427;29;20208;-83
2023/08/12 05:20:21;;;;;;;134.10;120.93;;;21.70;99.90;;;;;;4939864;29;20185;-83
2023/08/12 05:22:47;;;;;;;140.57;127.27;;;21.70;99.90;;;;;;4940766;29;20715;-83
2023/08/12 05:25:13;;;;;;;141.60;127.90;;;21.70;99.90;;;;;;4940213;29;20618;-84
2023/08/12 05:27:42;;;;;;;136.17;122.93;;;21.70;99.90;;;;;;4940142;29;20165;-82
2023/08/12 05:30:08;;;;;;;135.33;121.97;;;21.70;99.90;;;;;;4940242;29;20200;-83
2023/08/12 05:32:33;;;;;;;137.13;123.83;;;21.70;99.90;;;;;;4939889;29;20774;-83
2023/08/12 05:34:59;;;;;;;136.10;122.87;;;21.70;99.90;;;;;;4939883;29;20412;-82
2023/08/12 05:37:27;;;;;;;133.63;120.37;;;21.70;99.90;;;;;;4939587;29;20168;-84
2023/08/12 05:39:55;;;;;;;131.70;118.63;;;21.70;99.90;;;;;;4940200;29;20199;-83
2023/08/12 05:42:21;;;;;;;145.17;131.63;;;21.70;99.90;;;;;;4941994;29;20507;-82
2023/08/12 05:44:47;;;;;;;126.40;113.43;;;21.70;99.90;;;;;;4922849;29;20621;-82
2023/08/12 05:47:12;;;;;;;130.13;116.77;;;21.70;99.90;;;;;;4939569;29;20168;-83
2023/08/12 05:49:38;;;;;;;145.20;131.30;;;21.70;99.90;;;;;;4939869;29;20692;-82
2023/08/12 05:52:04;;;;;;;141.67;128.23;;;21.60;99.90;;;;;;4939642;29;20173;-83
2023/08/12 05:54:30;;;;;;;146.37;132.77;;;21.50;99.90;;;;;;4922443;29;20173;-82
2023/08/12 05:56:56;;;;;;;146.03;132.43;;;21.50;99.90;;;;;;4939121;29;20409;-81
2023/08/12 05:59:21;;;;;;;150.57;136.33;;;21.40;99.90;;;;;;4939459;29;20212;-82
2023/08/12 06:01:47;;;;;;;152.13;137.80;;;21.40;99.90;;;;;;4939254;29;20197;-80
2023/08/12 06:04:13;;;;;;;147.37;133.43;;;21.30;99.90;;;;;;4939324;29;20168;-81
2023/08/12 06:06:38;;;;;;;151.77;137.60;;;21.40;99.90;;;;;;4921425;29;20165;-81
2023/08/12 06:09:04;;;;;;;155.67;141.20;;;21.40;99.90;;;;;;4938397;29;20180;-82
2023/08/12 06:11:30;;;;;;;151.63;137.23;;;21.40;99.90;;;;;;4920887;29;20291;-81
2023/08/12 06:13:55;;;;;;;158.33;144.00;;;21.30;99.90;;;;;;4938532;29;20176;-81
2023/08/12 06:16:24;;;;;;;149.17;134.87;;;21.30;99.90;;;;;;4938725;29;20169;-82
2023/08/12 06:18:49;;;;;;;179.67;163.77;;;21.30;99.90;;;;;;4938651;29;20235;-82
2023/08/12 06:21:15;;;;;;;169.37;154.33;;;21.30;99.90;;;;;;4938911;29;20551;-81
2023/08/12 06:23:41;;;;;;;169.07;153.47;;;21.20;99.90;;;;;;4938306;29;20576;-83
2023/08/12 06:26:06;;;;;;;157.10;142.97;;;21.30;99.90;;;;;;4938166;29;20538;-82
2023/08/12 06:28:32;;;;;;;141.80;128.30;;;21.10;99.90;;;;;;4938970;29;20513;-81
2023/08/12 06:30:58;;;;;;;163.17;148.73;;;21.10;99.90;;;;;;4938687;29;20259;-81
2023/08/12 06:33:24;;;;;;;150.97;136.57;;;21.00;99.90;;;;;;4938815;29;20704;-82
2023/08/12 06:35:51;;;;;;;162.27;147.87;;;21.00;99.90;;;;;;4939377;29;20437;-81
2023/08/12 06:38:16;;;;;;;161.97;147.17;;;21.00;99.90;;;;;;4938826;29;20683;-82
2023/08/12 06:40:42;;;;;;;158.87;144.77;;;21.00;99.90;;;;;;4938498;29;20456;-81
2023/08/12 06:43:08;;;;;;;168.93;154.33;;;21.00;99.90;;;;;;4938117;29;20173;-83
2023/08/12 06:45:34;;;;;;;161.40;147.13;;;21.10;99.90;;;;;;4921995;29;20193;-83
2023/08/12 06:48:02;;;;;;;150.10;136.40;;;21.20;99.90;;;;;;4938197;29;20497;-84
2023/08/12 06:50:27;;;;;;;141.10;127.93;;;21.30;99.90;;;;;;4938142;29;20424;-82
2023/08/12 06:52:53;;;;;;;134.23;121.43;;;21.50;99.90;;;;;;4921273;29;20409;-82
2023/08/12 06:55:19;;;;;;;133.43;120.47;;;21.40;99.90;;;;;;4938440;29;20211;-83
2023/08/12 06:57:45;;;;;;;130.27;117.70;;;21.50;99.90;;;;;;5008777;23;20228;-82
2023/08/12 07:00:11;;;;;;;126.97;114.67;;;21.50;99.90;;;;;;4923945;29;20319;-82
2023/08/12 07:02:37;;;;;;;123.80;111.50;;;21.70;99.90;;;;;;4923678;29;20459;-82
2023/08/12 07:05:03;;;;;;;113.20;101.17;;;21.60;99.90;;;;;;4940680;29;20413;-82
2023/08/12 07:07:28;;;;;;;117.93;105.47;;;21.50;99.90;;;;;;4940276;29;20168;-83
2023/08/12 07:09:54;;;;;;;124.23;111.73;;;21.40;99.90;;;;;;4940323;29;20515;-83
2023/08/12 07:12:20;;;;;;;113.50;101.80;;;21.30;99.90;;;;;;4940805;29;20169;-82
2023/08/12 07:14:45;;;;;;;112.37;100.47;;;21.40;99.90;;;;;;4940446;29;20206;-82
2023/08/12 07:17:11;;;;;;;116.77;104.53;;;21.60;99.90;;;;;;4940544;29;20201;-83
2023/08/12 07:19:36;;;;;;;120.03;107.87;;;21.60;99.90;;;;;;4940029;29;20184;-81
2023/08/12 07:22:02;;;;;;;123.87;111.57;;;21.80;99.90;;;;;;4941482;29;20199;-79
2023/08/12 07:24:28;;;;;;;128.87;116.37;;;21.80;99.90;;;;;;4941079;29;20208;-80
2023/08/12 07:26:54;;;;;;;119.93;107.73;;;22.00;99.90;;;;;;4940643;29;20460;-80
2023/08/12 07:29:19;;;;;;;117.83;105.63;;;22.00;99.90;;;;;;4922889;29;20196;-81
2023/08/12 07:31:45;;;;;;;127.73;115.23;;;22.00;99.90;;;;;;4939422;29;20201;-80
2023/08/12 07:34:13;;;;;;;113.77;102.07;;;22.00;99.90;;;;;;4939865;29;20655;-80
2023/08/12 07:36:40;;;;;;;126.17;113.93;;;22.00;99.90;;;;;;4924674;29;20593;-80
2023/08/12 07:39:06;;;;;;;114.47;102.57;;;22.00;99.90;;;;;;4943899;29;20484;-80
2023/08/12 07:41:32;;;;;;;130.60;117.90;;;21.90;99.90;;;;;;4926698;29;20470;-80
2023/08/12 07:43:57;;;;;;;130.80;117.83;;;22.10;99.90;;;;;;4943579;29;20420;-80
2023/08/12 07:46:23;;;;;;;130.90;118.17;;;22.30;99.90;;;;;;4926711;29;20405;-80
2023/08/12 07:48:49;;;;;;;132.30;119.80;;;22.40;99.90;;;;;;4940500;29;20653;-80
2023/08/12 07:51:15;;;;;;;138.80;125.83;;;22.60;99.90;;;;;;4940120;29;20700;-80
2023/08/12 07:53:40;;;;;;;126.47;114.13;;;22.90;99.90;;;;;;4940045;29;20491;-80
2023/08/12 07:56:06;;;;;;;125.77;113.20;;;23.00;99.90;;;;;;4940313;29;20168;-80
2023/08/12 07:58:32;;;;;;;123.40;111.17;;;23.00;99.90;;;;;;4939765;29;20728;-80
2023/08/12 08:00:57;;;;;;;111.33;99.53;;;23.20;99.90;;;;;;4939614;29;20669;-80
2023/08/12 08:03:23;;;;;;;118.93;107.00;;;23.30;99.90;;;;;;4939901;29;20708;-80
2023/08/12 08:05:49;;;;;;;113.57;101.70;;;23.20;99.90;;;;;;4940089;29;20641;-80
2023/08/12 08:08:14;;;;;;;107.30;95.80;;;23.20;99.90;;;;;;4922638;29;20637;-80
2023/08/12 08:10:40;;;;;;;110.80;99.33;;;23.00;99.90;;;;;;4939578;29;20185;-80
2023/08/12 08:13:06;;;;;;;105.17;93.80;;;23.10;99.90;;;;;;4939641;29;20577;-80
2023/08/12 08:15:31;;;;;;;110.77;99.33;;;23.10;99.90;;;;;;4939544;29;20176;-80
2023/08/12 08:17:57;;;;;;;114.67;103.03;;;22.90;99.90;;;;;;4939838;29;20168;-80
2023/08/12 08:20:23;;;;;;;107.93;96.33;;;22.90;99.90;;;;;;4939649;29;20188;-79
2023/08/12 08:22:49;;;;;;;111.23;99.63;;;22.90;99.90;;;;;;4922638;29;20189;-79
2023/08/12 08:25:14;;;;;;;110.33;98.73;;;22.80;99.90;;;;;;4939648;29;20192;-80
2023/08/12 08:27:40;;;;;;;116.73;104.83;;;22.90;99.90;;;;;;4939838;29;20189;-80
2023/08/12 08:30:07;;;;;;;112.30;100.50;;;23.00;99.90;;;;;;4922420;29;20569;-80
2023/08/12 08:32:33;;;;;;;101.53;86.77;;;23.20;99.90;;;;;;4939670;29;20600;-80
2023/08/12 08:34:59;;;;;;;99.53;85.17;;;23.10;99.90;;;;;;4939489;29;20511;-80
2023/08/12 08:37:24;;;;;;;106.53;94.83;;;23.10;99.90;;;;;;4939773;29;20442;-80
2023/08/12 08:39:50;;;;;;;108.63;97.10;;;23.00;99.90;;;;;;4922303;29;20433;-79
2023/08/12 08:42:18;;;;;;;110.80;99.13;;;23.10;99.90;;;;;;4939392;29;20184;-79
2023/08/12 08:44:45;;;;;;;113.20;101.50;;;23.00;99.90;;;;;;4939694;29;20518;-79
2023/08/12 08:47:13;;;;;;;118.93;106.23;;;23.00;99.90;;;;;;4938407;29;20404;-79
2023/08/12 08:49:41;;;;;;;124.30;112.00;;;23.10;99.90;;;;;;4939061;29;20425;-79
2023/08/12 08:52:07;;;;;;;125.63;113.27;;;23.20;99.90;;;;;;4922164;29;20418;-79
2023/08/12 08:54:34;;;;;;;112.93;101.17;;;23.40;99.90;;;;;;4939338;29;20405;-79
2023/08/12 08:57:00;;;;;;;121.87;109.73;;;23.40;99.90;;;;;;4939396;29;20405;-79
2023/08/12 08:59:25;;;;;;;115.23;103.57;;;23.40;99.90;;;;;;4939667;29;20913;-79
2023/08/12 09:01:53;;;;;;;112.50;100.87;;;23.50;99.90;;;;;;4939539;29;20456;-79
2023/08/12 09:04:21;;;;;;;110.63;98.90;;;23.60;99.90;;;;;;4939794;29;20160;-79
2023/08/12 09:06:49;;;;;;;118.63;106.60;;;23.60;99.90;;;;;;4922391;29;20406;-79
2023/08/12 09:09:19;;;;;;;103.33;91.93;;;23.80;99.90;;;;;;4941083;29;20424;-80
2023/08/12 09:11:47;;;;;;;115.70;103.70;;;23.90;99.90;;;;;;4942399;29;20405;-80
2023/08/12 09:14:13;;;;;;;106.40;94.43;;;23.80;99.90;;;;;;4942099;29;20405;-80
2023/08/12 09:16:39;;;;;;;101.30;90.13;;;24.00;99.90;;;;;;4942030;29;20409;-79
2023/08/12 09:19:05;;;;;;;96.53;79.97;;;24.20;99.90;;;;;;4942238;29;20195;-80
2023/08/12 09:21:30;;;;;;;93.53;75.77;;;24.30;99.90;;;;;;4941994;29;20668;-79
2023/08/12 09:23:56;;;;;;;92.57;73.60;;;24.60;99.90;;;;;;4941483;29;20463;-79
2023/08/12 09:26:22;;;;;;;72.70;13.83;;;24.60;99.90;;;;;;4941282;29;20177;-79
2023/08/12 09:28:48;;;;;;;73.30;15.57;;;24.70;99.90;;;;;;4941378;29;20188;-80
2023/08/12 09:31:28;;;;;;;71.80;11.33;;;25.00;99.90;;;;;;4924140;29;20171;-79
2023/08/12 09:34:03;;;;;;;80.50;18.90;;;25.00;99.90;;;;;;4941651;29;20414;-79
2023/08/12 09:36:30;;;;;;;75.47;18.27;;;25.20;99.90;;;;;;4941110;29;20426;-80
2023/08/12 09:38:57;;;;;;;74.77;19.30;;;25.30;99.90;;;;;;4924209;29;20869;-79
2023/08/12 09:41:24;;;;;;;77.43;27.10;;;24.90;99.90;;;;;;4941175;29;20449;-79
2023/08/12 09:43:51;;;;;;;75.67;24.47;;;25.00;99.90;;;;;;4941162;29;20399;-79
2023/08/12 09:46:17;;;;;;;77.47;26.63;;;25.30;99.90;;;;;;4940842;29;20407;-80
2023/08/12 09:48:43;;;;;;;76.37;26.40;;;25.70;99.90;;;;;;4940735;29;20419;-80
2023/08/12 09:51:09;;;;;;;78.87;32.87;;;25.90;99.90;;;;;;4940591;29;20235;-79
2023/08/12 09:53:35;;;;;;;77.00;23.40;;;26.20;99.90;;;;;;4940915;29;20408;-81
2023/08/12 09:56:08;;;;;;;77.57;26.40;;;26.30;99.90;;;;;;4924360;29;20177;-79
2023/08/12 09:58:36;;;;;;;77.27;26.20;;;26.10;99.90;;;;;;4940902;29;20439;-81
2023/08/12 10:01:06;;;;;;;75.90;22.80;;;25.60;99.90;;;;;;4940933;29;20448;-79
2023/08/12 10:03:34;;;;;;;75.70;21.77;;;25.10;99.90;;;;;;4940598;29;20395;-80
2023/08/12 10:06:01;;;;;;;74.07;22.83;;;24.90;99.90;;;;;;4941233;29;20415;-80
2023/08/12 10:08:29;;;;;;;73.87;20.67;;;24.40;99.90;;;;;;4940610;29;20967;-80
2023/08/12 10:10:55;;;;;;;74.67;22.13;;;24.40;99.90;;;;;;4923780;29;20407;-79
2023/08/12 10:13:24;;;;;;;75.07;22.60;;;24.40;99.90;;;;;;4941048;29;20486;-80
2023/08/12 10:15:52;;;;;;;75.30;24.70;;;24.10;99.90;;;;;;4940800;29;20173;-80
2023/08/12 10:18:19;;;;;;;76.37;27.40;;;24.10;99.90;;;;;;4923417;29;20509;-79
2023/08/12 10:20:46;;;;;;;76.37;27.07;;;24.10;99.90;;;;;;4941084;29;20516;-80
2023/08/12 10:23:18;;;;;;;76.87;27.23;;;24.20;99.90;;;;;;4941118;29;20497;-79
2023/08/12 10:25:44;;;;;;;73.60;19.27;;;24.50;99.90;;;;;;4940498;29;20441;-80
2023/08/12 10:28:12;;;;;;;75.00;23.47;;;24.80;99.90;;;;;;4940677;29;20413;-80
2023/08/12 10:30:40;;;;;;;76.40;24.87;;;24.90;99.90;;;;;;4939614;29;20638;-79
2023/08/12 10:33:06;;;;;;;77.20;21.50;;;25.00;99.90;;;;;;4938587;29;20465;-79
2023/08/12 10:35:49;;;;;;;75.63;24.50;;;25.00;99.90;;;;;;4938321;29;20413;-80
2023/08/12 10:38:19;;;;;;;77.13;25.43;;;25.00;99.90;;;;;;4938747;29;20158;-79
2023/08/12 10:40:45;;;;;;;76.60;25.57;;;25.00;99.90;;;;;;4938614;29;20430;-79
2023/08/12 10:43:13;;;;;;;76.37;25.40;;;24.90;99.90;;;;;;4921548;29;20477;-79
2023/08/12 10:45:47;;;;;;;82.23;28.57;;;24.70;99.90;;;;;;4921579;29;20789;-79
2023/08/12 10:48:24;;;;;;;76.87;24.40;;;24.50;99.90;;;;;;4938508;29;20390;-80
2023/08/12 10:50:58;;;;;;;75.47;23.80;;;24.40;99.90;;;;;;4938379;29;20798;-79
2023/08/12 10:53:33;;;;;;;77.13;26.90;;;24.20;99.90;;;;;;4921467;29;20406;-79
2023/08/12 10:56:05;;;;;;;76.70;22.43;;;24.00;99.90;;;;;;4938725;29;20389;-79
2023/08/12 10:58:44;;;;;;;75.60;24.30;;;24.00;99.90;;;;;;4921064;29;20444;-80
2023/08/12 11:01:16;;;;;;;77.10;27.27;;;24.10;99.90;;;;;;4921607;29;20456;-80
2023/08/12 11:03:47;;;;;;;75.50;24.07;;;24.00;99.90;;;;;;4938998;29;20386;-80
2023/08/12 11:06:13;;;;;;;76.77;26.83;;;24.10;99.90;;;;;;4939181;29;20390;-80
2023/08/12 11:08:55;;;;;;;75.57;24.67;;;24.20;99.90;;;;;;4938727;29;20432;-80
2023/08/12 11:11:26;;;;;;;75.90;24.27;;;24.10;99.90;;;;;;4938989;29;20525;-80
2023/08/12 11:13:58;;;;;;;75.20;23.70;;;24.10;99.90;;;;;;4938766;29;20444;-80
2023/08/12 11:16:37;;;;;;;74.67;22.33;;;24.10;99.90;;;;;;4938679;29;20469;-80
2023/08/12 11:19:03;;;;;;;77.07;26.93;;;24.20;99.90;;;;;;4938379;29;20532;-80
2023/08/12 11:21:29;;;;;;;75.63;20.53;;;24.20;99.90;;;;;;4938797;29;20479;-80
2023/08/12 11:23:55;;;;;;;76.53;22.03;;;24.20;99.90;;;;;;4938761;29;20405;-80
2023/08/12 11:26:26;;;;;;;77.20;26.57;;;24.30;99.90;;;;;;4938636;29;20631;-79
2023/08/12 11:28:53;;;;;;;76.10;24.47;;;24.20;99.90;;;;;;4938212;29;20425;-80
2023/08/12 11:31:19;;;;;;;76.33;24.37;;;24.10;99.90;;;;;;4938796;29;20415;-80
2023/08/12 11:33:44;;;;;;;76.57;26.20;;;24.30;99.90;;;;;;4921273;29;20417;-79
2023/08/12 11:36:10;;;;;;;76.83;25.07;;;24.30;99.90;;;;;;4938809;29;20185;-80
2023/08/12 11:38:37;;;;;;;75.70;23.57;;;24.40;99.90;;;;;;4938400;29;20176;-79
2023/08/12 11:41:03;;;;;;;74.90;22.57;;;24.40;99.90;;;;;;4938373;29;20538;-80
2023/08/12 11:43:32;;;;;;;75.67;24.63;;;24.40;99.90;;;;;;4938282;29;20411;-80
2023/08/12 11:45:58;;;;;;;77.33;26.27;;;24.50;99.90;;;;;;4938516;29;20200;-80
2023/08/12 11:48:24;;;;;;;76.37;26.97;;;24.40;99.90;;;;;;4938075;29;20484;-79
2023/08/12 11:50:50;;;;;;;74.77;23.07;;;24.60;99.90;;;;;;4938647;29;20445;-79
2023/08/12 11:53:16;;;;;;;75.67;20.53;;;24.80;99.90;;;;;;4938473;29;20170;-80
2023/08/12 11:55:42;;;;;;;77.73;25.63;;;24.80;99.90;;;;;;4938138;29;20408;-79
2023/08/12 11:58:08;;;;;;;81.90;28.33;;;24.80;99.90;;;;;;4937647;29;20428;-80
2023/08/12 12:00:34;;;;;;;78.80;29.50;;;24.90;99.90;;;;;;4938185;29;20436;-79
2023/08/12 12:03:00;;;;;;;83.03;31.83;;;25.00;99.90;;;;;;4937615;29;20597;-79
2023/08/12 12:05:29;;;;;;;85.73;38.20;;;25.20;99.90;;;;;;4938056;29;20203;-79
2023/08/12 12:07:55;;;;;;;79.87;33.87;;;25.30;99.90;;;;;;4938623;29;20178;-79
2023/08/12 12:10:28;;;;;;;78.23;27.93;;;25.20;99.90;;;;;;4937661;29;20453;-79
2023/08/12 12:12:58;;;;;;;79.50;33.90;;;25.40;99.90;;;;;;4937940;29;20428;-80
2023/08/12 12:15:24;;;;;;;79.43;32.83;;;25.40;99.90;;;;;;4937561;29;20456;-80
2023/08/12 12:17:50;;;;;;;78.97;33.23;;;25.50;99.90;;;;;;4937835;29;20416;-80
2023/08/12 12:20:16;;;;;;;79.13;32.67;;;25.60;99.90;;;;;;4937618;29;20190;-80
2023/08/12 12:22:44;;;;;;;79.40;32.53;;;25.60;99.90;;;;;;4939827;29;20482;-79
2023/08/12 12:25:14;;;;;;;81.70;37.47;;;25.70;99.90;;;;;;4941163;29;20403;-80
2023/08/12 12:27:41;;;;;;;78.70;31.80;;;25.50;99.90;;;;;;4940862;29;20398;-79
2023/08/12 12:30:12;;;;;;;81.37;37.77;;;25.20;99.90;;;;;;4942090;29;20435;-79
2023/08/12 12:32:41;;;;;;;83.57;32.40;;;25.20;99.90;;;;;;4941065;29;20422;-79
2023/08/12 12:35:07;;;;;;;76.13;26.20;;;25.30;99.90;;;;;;4941040;29;20415;-79
2023/08/12 12:37:33;;;;;;;79.73;33.83;;;25.50;99.90;;;;;;4941287;29;20781;-79
2023/08/12 12:39:59;;;;;;;77.77;28.63;;;25.60;99.90;;;;;;4941051;29;20974;-80
2023/08/12 12:42:25;;;;;;;78.77;30.73;;;25.60;99.90;;;;;;4923687;29;20460;-79
2023/08/12 12:44:50;;;;;;;83.03;29.57;;;25.60;99.90;;;;;;4940953;29;20586;-79
2023/08/12 12:47:16;;;;;;;78.30;29.47;;;25.70;99.90;;;;;;4941040;29;20888;-79
2023/08/12 12:49:42;;;;;;;77.77;29.77;;;25.90;99.90;;;;;;4940934;29;20198;-79